Time;durP1;ratioP1;P1;durP2;ratioP2;P2;SDS_P1;SDS_P2;PMS_P1;PMS_P2;Temp;Humidity;BMP_temperature;BMP_pressure;BME280_temperature;BME280_humidity;BME280_pressure;Samples;Min_cycle;Max_cycle;Signal;HPM_P1;HPM_P2
2021/08/02 00:01:47;;;;;;;6.82;3.90;;;;;;;15.27;97.57;97567.03;5024982;28;20539;-59
2021/08/02 00:04:17;;;;;;;8.93;3.75;;;;;;;15.10;99.21;97569.00;5026255;28;20025;-62
2021/08/02 00:06:52;;;;;;;8.50;4.15;;;;;;;15.41;98.83;97567.78;5027035;28;20041;-60
2021/08/02 00:09:31;;;;;;;7.07;3.25;;;;;;;15.27;98.31;97562.63;5025230;28;20033;-63
2021/08/02 00:12:04;;;;;;;4.03;3.20;;;;;;;15.17;99.00;97559.78;5027370;28;20084;-59
2021/08/02 00:14:30;;;;;;;6.05;3.22;;;;;;;15.37;97.65;97570.75;5024848;28;20383;-60
2021/08/02 00:16:56;;;;;;;7.68;3.63;;;;;;;15.35;97.64;97567.38;5025621;28;20057;-63
2021/08/02 00:19:23;;;;;;;7.35;3.80;;;;;;;15.08;99.46;97570.91;5025157;28;20065;-60
2021/08/02 00:21:50;;;;;;;6.22;3.50;;;;;;;15.26;98.37;97568.00;5024901;28;20064;-63
2021/08/02 00:24:17;;;;;;;6.32;3.47;;;;;;;15.15;98.36;97572.16;5026139;28;20032;-60
2021/08/02 00:26:43;;;;;;;5.10;3.60;;;;;;;15.12;98.88;97577.63;5024399;28;20041;-63
2021/08/02 00:29:08;;;;;;;6.80;3.70;;;;;;;14.93;100.00;97582.41;5025941;28;20087;-60
2021/08/02 00:31:35;;;;;;;7.15;3.60;;;;;;;14.90;99.63;97585.22;5028505;28;20065;-60
2021/08/02 00:34:00;;;;;;;6.68;3.30;;;;;;;14.80;100.00;97577.13;5025052;28;20029;-61
2021/08/02 00:36:58;;;;;;;5.07;3.00;;;;;;;14.89;100.00;97580.91;5026958;28;20037;-62
2021/08/02 00:39:34;;;;;;;8.60;3.60;;;;;;;14.80;100.00;97587.63;5026380;28;20051;-61
2021/08/02 00:42:38;;;;;;;4.60;3.33;;;;;;;14.92;100.00;97585.97;5025164;28;20045;-60
2021/08/02 00:45:10;;;;;;;8.23;4.00;;;;;;;14.69;100.00;97580.44;5025151;28;20032;-62
2021/08/02 00:47:54;;;;;;;7.50;3.92;;;;;;;14.76;100.00;97584.34;5025243;28;20045;-61
2021/08/02 00:50:23;;;;;;;5.95;3.70;;;;;;;14.70;100.00;97587.34;5024041;28;20695;-61
2021/08/02 00:52:59;;;;;;;6.22;3.47;;;;;;;14.91;100.00;97584.31;5028537;28;20026;-62
2021/08/02 00:55:29;;;;;;;9.23;4.30;;;;;;;14.69;100.00;97582.22;5023423;28;20083;-60
2021/08/02 00:57:57;;;;;;;6.60;3.78;;;;;;;14.80;100.00;97575.34;5024231;28;20026;-60
2021/08/02 01:00:23;;;;;;;5.93;3.47;;;;;;;15.50;96.91;97579.47;5025570;28;20079;-60
2021/08/02 01:02:51;;;;;;;5.38;3.90;;;;;;;15.13;97.95;97581.94;5027995;28;20036;-61
2021/08/02 01:05:18;;;;;;;8.73;3.53;;;;;;;14.96;100.00;97577.81;5024621;28;20083;-60
2021/08/02 01:07:47;;;;;;;11.38;3.95;;;;;;;14.71;100.00;97583.81;5025756;28;20024;-61
2021/08/02 01:10:14;;;;;;;9.35;3.75;;;;;;;15.01;98.99;97585.38;5026678;28;20025;-61
2021/08/02 01:12:43;;;;;;;6.10;3.95;;;;;;;14.93;100.00;97591.13;5026211;28;20111;-60
2021/08/02 01:15:11;;;;;;;6.47;3.70;;;;;;;14.66;100.00;97601.63;5024777;28;20044;-61
2021/08/02 01:17:37;;;;;;;8.23;3.45;;;;;;;15.00;99.66;97592.41;5025409;28;20059;-60
2021/08/02 01:20:04;;;;;;;10.27;3.00;;;;;;;15.33;99.59;97596.38;5028959;28;20033;-61
2021/08/02 01:22:31;;;;;;;6.32;3.45;;;;;;;15.04;99.14;97587.81;5028749;28;20079;-60
2021/08/02 01:24:57;;;;;;;5.10;3.60;;;;;;;15.15;98.75;97587.94;5028329;28;20802;-61
2021/08/02 01:27:34;;;;;;;5.68;3.35;;;;;;;15.25;98.63;97592.59;5028716;28;20034;-59
2021/08/02 01:30:21;;;;;;;9.23;3.72;;;;;;;15.23;99.19;97590.88;5029976;28;20025;-60
2021/08/02 01:32:48;;;;;;;6.78;3.30;;;;;;;15.09;99.37;97598.00;5028775;28;20041;-61
2021/08/02 01:35:14;;;;;;;9.35;3.38;;;;;;;15.09;99.51;97603.25;5025878;28;20111;-61
2021/08/02 01:37:43;;;;;;;5.10;3.47;;;;;;;15.22;98.38;97599.72;5031631;28;20048;-60
2021/08/02 01:40:09;;;;;;;4.97;3.33;;;;;;;15.17;99.25;97612.31;5026693;28;20032;-61
2021/08/02 01:42:36;;;;;;;5.80;3.40;;;;;;;15.15;99.22;97614.22;5027836;28;20037;-61
2021/08/02 01:45:02;;;;;;;7.35;3.20;;;;;;;15.23;99.02;97605.81;5028900;28;20129;-62
2021/08/02 01:47:51;;;;;;;6.00;3.10;;;;;;;15.07;100.00;97605.13;5028128;28;20128;-60
2021/08/02 01:50:37;;;;;;;5.03;3.38;;;;;;;15.11;99.88;97601.34;5028800;28;20510;-60
2021/08/02 01:53:18;;;;;;;4.70;3.08;;;;;;;15.30;99.08;97603.63;5029557;28;20475;-62
2021/08/02 01:55:50;;;;;;;5.75;3.30;;;;;;;15.25;98.71;97603.09;5029799;28;20604;-62
2021/08/02 01:58:15;;;;;;;4.75;3.05;;;;;;;15.47;98.33;97611.22;5030131;28;20476;-60
2021/08/02 02:00:47;;;;;;;4.15;2.83;;;;;;;15.30;98.11;97609.72;5028667;28;20047;-61
2021/08/02 02:03:21;;;;;;;6.30;3.43;;;;;;;15.38;96.97;97609.19;5024861;28;20052;-61
2021/08/02 02:05:55;;;;;;;8.35;3.40;;;;;;;15.17;99.13;97622.00;5027605;28;20037;-61
2021/08/02 02:08:32;;;;;;;4.80;2.95;;;;;;;15.21;99.31;97613.78;5028182;28;20053;-61
2021/08/02 02:11:00;;;;;;;4.15;3.00;;;;;;;14.94;100.00;97615.59;5029390;28;20068;-61
2021/08/02 02:13:40;;;;;;;9.88;3.50;;;;;;;14.94;99.78;97621.72;5027741;28;20025;-61
2021/08/02 02:16:06;;;;;;;6.15;3.47;;;;;;;14.85;99.91;97622.31;5029853;28;20577;-62
2021/08/02 02:18:34;;;;;;;8.65;3.30;;;;;;;14.93;100.00;97625.28;5028909;28;20375;-62
2021/08/02 02:21:02;;;;;;;6.57;3.35;;;;;;;14.92;100.00;97630.63;5027599;28;20047;-60
2021/08/02 02:23:29;;;;;;;7.45;3.47;;;;;;;14.82;100.00;97633.84;5027235;28;20017;-62
2021/08/02 02:25:55;;;;;;;5.00;3.22;;;;;;;14.89;100.00;97639.53;5028224;28;20143;-61
2021/08/02 02:28:21;;;;;;;5.20;3.40;;;;;;;14.80;100.00;97640.13;5028867;28;20269;-62
2021/08/02 02:30:48;;;;;;;5.57;3.45;;;;;;;15.12;99.75;97640.66;5027418;28;20563;-63
2021/08/02 02:33:15;;;;;;;5.15;3.30;;;;;;;15.05;99.83;97636.75;5027261;28;20029;-64
2021/08/02 02:35:42;;;;;;;8.13;3.60;;;;;;;15.10;99.82;97645.19;5029803;28;20056;-62
2021/08/02 02:38:10;;;;;;;7.82;3.25;;;;;;;14.95;100.00;97644.38;5027327;28;20527;-62
2021/08/02 02:40:37;;;;;;;6.45;3.53;;;;;;;15.03;100.00;97646.50;5028929;28;20048;-61
2021/08/02 02:43:07;;;;;;;4.38;3.10;;;;;;;15.25;100.00;97651.22;5027546;28;20067;-60
2021/08/02 02:45:35;;;;;;;7.22;3.40;;;;;;;15.28;100.00;97651.03;5027838;28;20931;-62
2021/08/02 02:48:04;;;;;;;6.43;3.40;;;;;;;15.29;99.16;97651.84;5030135;28;20021;-63
2021/08/02 02:50:30;;;;;;;5.63;2.90;;;;;;;15.49;97.77;97654.00;5028040;28;20045;-61
2021/08/02 02:52:56;;;;;;;10.10;3.53;;;;;;;14.54;100.00;97657.47;5026157;28;20036;-60
2021/08/02 02:55:25;;;;;;;6.25;3.70;;;;;;;14.81;100.00;97665.44;5029061;28;20025;-61
2021/08/02 02:57:50;;;;;;;7.45;3.20;;;;;;;15.07;100.00;97662.91;5030358;28;20025;-63
2021/08/02 03:00:16;;;;;;;5.57;3.60;;;;;;;15.22;99.41;97668.03;5028077;28;20040;-61
2021/08/02 03:02:43;;;;;;;8.80;3.45;;;;;;;15.35;99.51;97672.50;5028509;28;20028;-60
2021/08/02 03:05:11;;;;;;;5.88;3.10;;;;;;;15.34;99.06;97665.53;5026958;28;20029;-63
2021/08/02 03:07:38;;;;;;;7.60;3.63;;;;;;;14.98;100.00;97665.22;5028102;28;20032;-59
2021/08/02 03:10:05;;;;;;;7.53;3.50;;;;;;;15.04;100.00;97671.84;5024910;28;20033;-61
2021/08/02 03:12:31;;;;;;;7.28;3.58;;;;;;;15.16;100.00;97663.19;5025968;28;20021;-60
2021/08/02 03:14:57;;;;;;;5.45;3.22;;;;;;;15.48;98.52;97664.66;5026119;28;20403;-60
2021/08/02 03:17:22;;;;;;;7.32;3.50;;;;;;;15.06;100.00;97672.59;5026903;28;20561;-59
2021/08/02 03:19:48;;;;;;;6.22;3.50;;;;;;;15.17;100.00;97678.00;5029778;28;20108;-60
2021/08/02 03:22:24;;;;;;;7.40;3.63;;;;;;;15.03;100.00;97684.16;5026692;28;20068;-61
2021/08/02 03:24:58;;;;;;;4.68;3.00;;;;;;;15.29;100.00;97688.63;5028304;28;20800;-60
2021/08/02 03:27:28;;;;;;;6.38;3.00;;;;;;;15.40;99.72;97684.38;5026933;28;20065;-61
2021/08/02 03:29:59;;;;;;;7.60;3.40;;;;;;;15.33;99.75;97690.13;5026597;28;20065;-61
2021/08/02 03:32:26;;;;;;;5.65;3.03;;;;;;;15.39;99.84;97687.09;5028119;28;20037;-62
2021/08/02 03:34:58;;;;;;;9.32;3.85;;;;;;;15.41;97.92;97682.59;5026610;28;20032;-61
2021/08/02 03:37:24;;;;;;;;;;;;;;;15.63;97.00;97689.06;5026442;28;20107;-62
2021/08/02 03:39:52;;;;;;;5.20;3.42;;;;;;;15.40;100.00;97692.28;5025642;28;19916;-60
2021/08/02 03:42:19;;;;;;;6.50;3.38;;;;;;;15.21;99.94;97692.59;5025423;28;20532;-60
2021/08/02 03:44:47;;;;;;;4.45;3.35;;;;;;;15.70;96.67;97687.72;5026045;28;20045;-63
2021/08/02 03:47:12;;;;;;;7.32;3.47;;;;;;;15.19;99.92;97694.50;5026462;28;20087;-60
2021/08/02 03:49:38;;;;;;;7.40;3.70;;;;;;;15.28;98.90;97692.22;5025362;28;20698;-60
2021/08/02 03:52:04;;;;;;;5.18;3.38;;;;;;;15.46;98.24;97691.03;5025667;28;20038;-62
2021/08/02 03:54:32;;;;;;;7.15;3.53;;;;;;;15.25;99.59;97703.75;5027383;28;20040;-60
2021/08/02 03:57:01;;;;;;;5.10;3.63;;;;;;;15.38;98.60;97698.56;5025870;28;20560;-60
2021/08/02 03:59:26;;;;;;;5.13;3.38;;;;;;;15.46;99.34;97701.53;5026647;28;20682;-63
2021/08/02 04:01:52;;;;;;;9.70;4.40;;;;;;;15.34;97.77;97707.59;5027271;28;20029;-61
2021/08/02 04:04:17;;;;;;;5.30;3.45;;;;;;;15.50;97.96;97703.00;5034329;28;20028;-60
2021/08/02 04:06:43;;;;;;;7.55;3.47;;;;;;;15.42;98.36;97697.44;5023458;28;20457;-60
2021/08/02 04:09:11;;;;;;;4.38;3.15;;;;;;;15.42;97.10;97700.06;5027552;28;20041;-61
2021/08/02 04:11:38;;;;;;;7.10;3.60;;;;;;;15.14;98.98;97708.88;5024987;28;20045;-61
2021/08/02 04:14:04;;;;;;;6.82;3.40;;;;;;;15.41;97.78;97708.88;5023894;28;20132;-60
2021/08/02 04:16:30;;;;;;;5.10;3.50;;;;;;;15.17;100.00;97714.78;5026956;28;20044;-62
2021/08/02 04:18:55;;;;;;;8.30;4.20;;;;;;;15.16;99.08;97715.72;5027082;28;20056;-62
2021/08/02 04:21:21;;;;;;;6.90;3.88;;;;;;;15.15;99.02;97703.53;5028599;28;20041;-60
2021/08/02 04:23:46;;;;;;;6.25;3.83;;;;;;;15.14;100.00;97709.69;5025531;28;20047;-59
2021/08/02 04:26:12;;;;;;;6.65;4.60;;;;;;;15.09;99.70;97714.44;5025692;28;20044;-60
2021/08/02 04:28:44;;;;;;;7.25;4.20;;;;;;;15.22;98.85;97719.75;5027416;28;20032;-62
2021/08/02 04:31:11;;;;;;;6.30;3.55;;;;;;;15.22;98.59;97720.56;5025548;28;20519;-60
2021/08/02 04:33:37;;;;;;;6.85;4.10;;;;;;;15.32;98.40;97723.44;5025470;28;20030;-60
2021/08/02 04:36:04;;;;;;;10.52;4.50;;;;;;;14.98;100.00;97722.13;5025744;28;20179;-62
2021/08/02 04:38:29;;;;;;;7.57;4.18;;;;;;;15.40;97.63;97733.44;5026027;28;20025;-60
2021/08/02 04:40:55;;;;;;;5.45;3.45;;;;;;;15.37;97.89;97734.50;5025863;28;20036;-60
2021/08/02 04:43:21;;;;;;;9.80;3.80;;;;;;;15.28;98.56;97723.75;5023742;28;20025;-60
2021/08/02 04:45:46;;;;;;;5.03;3.80;;;;;;;15.49;96.67;97727.59;5025417;28;20092;-60
2021/08/02 04:48:12;;;;;;;7.03;3.75;;;;;;;15.45;96.81;97730.53;5023744;28;20029;-62
2021/08/02 04:50:38;;;;;;;6.28;4.13;;;;;;;15.32;97.15;97725.25;5024310;28;20037;-59
2021/08/02 04:53:06;;;;;;;8.13;3.72;;;;;;;15.57;97.22;97730.59;5029318;28;20553;-61
2021/08/02 04:55:31;;;;;;;7.47;4.13;;;;;;;15.81;94.28;97732.56;5029584;28;20570;-60
2021/08/02 04:57:59;;;;;;;4.50;3.15;;;;;;;15.94;94.26;97738.69;5031562;28;20061;-60
2021/08/02 05:00:24;;;;;;;8.82;3.70;;;;;;;16.00;93.89;97730.38;5030298;28;20719;-60
2021/08/02 05:02:49;;;;;;;7.53;4.10;;;;;;;16.00;93.69;97726.91;5017269;28;20032;-60
2021/08/02 05:05:15;;;;;;;8.25;4.10;;;;;;;15.88;94.78;97731.22;5031105;28;20043;-62
2021/08/02 05:07:40;;;;;;;8.65;3.42;;;;;;;15.91;95.25;97738.88;5032440;28;20139;-62
2021/08/02 05:10:06;;;;;;;5.50;3.50;;;;;;;16.28;91.96;97738.19;5031681;28;20030;-60
2021/08/02 05:12:31;;;;;;;7.22;3.10;;;;;;;16.27;91.44;97744.41;5031292;28;20384;-61
2021/08/02 05:15:03;;;;;;;10.60;4.07;;;;;;;16.26;93.34;97743.56;5033918;28;20025;-61
2021/08/02 05:17:28;;;;;;;5.75;3.88;;;;;;;15.76;93.39;97747.81;5029862;28;20156;-60
2021/08/02 05:19:54;;;;;;;6.50;3.80;;;;;;;16.05;93.94;97745.88;5030354;28;20029;-60
2021/08/02 05:22:19;;;;;;;7.93;3.80;;;;;;;15.98;92.84;97745.41;5030394;28;20841;-60
2021/08/02 05:24:44;;;;;;;6.25;3.97;;;;;;;15.96;92.73;97746.47;5031837;28;20036;-61
2021/08/02 05:27:10;;;;;;;7.43;3.30;;;;;;;16.55;90.76;97753.88;5033344;28;20040;-62
2021/08/02 05:29:35;;;;;;;6.75;3.95;;;;;;;16.71;90.13;97753.66;5031498;28;20045;-62
2021/08/02 05:32:00;;;;;;;9.73;4.43;;;;;;;16.52;90.00;97764.59;5029997;28;20116;-61
2021/08/02 05:34:26;;;;;;;9.32;4.50;;;;;;;16.60;88.96;97757.03;5026356;28;20022;-61
2021/08/02 05:36:51;;;;;;;7.35;4.07;;;;;;;16.74;88.06;97761.31;5029417;28;20033;-60
2021/08/02 05:39:16;;;;;;;9.68;4.60;;;;;;;16.87;87.14;97758.72;5031616;28;20021;-63
2021/08/02 05:41:42;;;;;;;7.25;4.03;;;;;;;17.07;87.20;97760.75;5029637;28;20152;-60
2021/08/02 05:44:07;;;;;;;6.85;4.45;;;;;;;17.22;85.40;97760.63;5030194;28;20706;-62
2021/08/02 05:46:33;;;;;;;6.65;4.10;;;;;;;17.13;85.50;97760.34;5033835;28;20049;-63
2021/08/02 05:48:58;;;;;;;7.10;3.97;;;;;;;17.41;84.82;97762.78;5029147;28;20029;-61
2021/08/02 05:51:23;;;;;;;6.95;4.20;;;;;;;17.15;85.80;97763.72;5031108;28;20037;-63
2021/08/02 05:53:49;;;;;;;6.50;4.30;;;;;;;17.34;85.43;97762.38;5028796;28;20033;-62
2021/08/02 05:56:14;;;;;;;10.07;3.97;;;;;;;17.47;85.19;97762.34;5027668;28;20048;-62
2021/08/02 05:58:39;;;;;;;9.27;4.35;;;;;;;17.71;83.81;97770.25;5031051;28;20037;-63
2021/08/02 06:01:05;;;;;;;7.50;3.92;;;;;;;17.82;84.32;97772.91;5031798;28;20164;-61
2021/08/02 06:03:30;;;;;;;6.60;3.90;;;;;;;17.97;86.23;97765.69;5030145;28;20025;-62
2021/08/02 06:05:56;;;;;;;9.00;4.40;;;;;;;17.74;84.15;97767.38;5028316;28;20047;-62
2021/08/02 06:08:21;;;;;;;12.25;4.38;;;;;;;18.59;81.22;97766.31;5030452;28;20112;-62
2021/08/02 06:10:49;;;;;;;8.75;4.40;;;;;;;18.50;80.65;97765.22;5029973;28;20045;-61
2021/08/02 06:13:14;;;;;;;6.53;4.00;;;;;;;18.32;83.18;97764.81;5030913;28;20720;-61
2021/08/02 06:15:40;;;;;;;10.30;3.75;;;;;;;19.09;80.55;97769.44;5031222;28;20838;-61
2021/08/02 06:18:05;;;;;;;7.53;4.20;;;;;;;18.80;78.08;97766.44;5033480;28;20396;-61
2021/08/02 06:20:30;;;;;;;7.78;3.90;;;;;;;19.33;77.97;97777.22;5028901;28;20111;-62
2021/08/02 06:22:56;;;;;;;8.98;4.18;;;;;;;19.02;77.77;97774.41;5029227;28;20021;-60
2021/08/02 06:25:21;;;;;;;9.23;4.70;;;;;;;18.61;76.57;97770.50;5027992;28;20032;-62
2021/08/02 06:27:46;;;;;;;6.78;4.30;;;;;;;19.14;76.00;97762.00;5034374;28;20483;-60
2021/08/02 06:30:14;;;;;;;6.47;3.95;;;;;;;20.19;72.49;97775.47;5029717;28;20116;-61
2021/08/02 06:32:43;;;;;;;6.35;3.90;;;;;;;19.84;73.49;97781.06;5030642;28;20572;-60
2021/08/02 06:35:09;;;;;;;7.53;3.42;;;;;;;20.90;69.54;97776.63;5030047;28;20035;-60
2021/08/02 06:37:34;;;;;;;6.18;3.53;;;;;;;20.31;70.78;97778.91;5029010;28;20021;-62
2021/08/02 06:39:59;;;;;;;9.90;3.90;;;;;;;19.83;72.21;97790.81;5031202;28;20185;-63
2021/08/02 06:42:25;;;;;;;6.65;3.35;;;;;;;19.56;71.81;97790.41;5030568;28;20037;-63
2021/08/02 06:44:50;;;;;;;6.93;3.00;;;;;;;19.76;71.82;97794.09;5030875;28;20968;-64
2021/08/02 06:47:16;;;;;;;5.07;2.95;;;;;;;20.06;70.09;97789.91;5029418;28;20498;-63
2021/08/02 06:49:41;;;;;;;6.45;3.40;;;;;;;19.78;70.49;97793.00;5029989;28;20033;-64
2021/08/02 06:52:06;;;;;;;6.97;2.78;;;;;;;20.30;69.09;97797.59;5029586;28;20041;-62
2021/08/02 06:54:32;;;;;;;5.50;3.00;;;;;;;20.11;70.01;97799.13;5030534;28;20036;-63
2021/08/02 06:56:57;;;;;;;8.50;2.90;;;;;;;20.11;70.49;97799.13;5030802;28;20450;-63
2021/08/02 06:59:22;;;;;;;4.55;3.20;;;;;;;19.76;72.06;97800.22;5028610;28;20521;-63
2021/08/02 07:01:48;;;;;;;9.13;3.42;;;;;;;19.32;71.52;97799.34;5031286;28;20528;-63
2021/08/02 07:04:13;;;;;;;8.15;3.40;;;;;;;19.04;72.59;97800.69;5030507;28;20394;-62
2021/08/02 07:06:41;;;;;;;6.13;3.03;;;;;;;19.36;72.99;97802.59;5030005;28;20451;-60
2021/08/02 07:09:08;;;;;;;8.15;3.20;;;;;;;19.20;72.13;97798.50;5028841;28;20561;-62
2021/08/02 07:11:33;;;;;;;4.15;3.22;;;;;;;19.03;73.40;97804.31;5029476;28;20036;-61
2021/08/02 07:13:58;;;;;;;5.45;3.25;;;;;;;19.11;72.56;97804.53;5027482;28;20029;-61
2021/08/02 07:16:24;;;;;;;5.60;3.33;;;;;;;19.33;71.75;97797.53;5028017;28;20033;-60
2021/08/02 07:18:52;;;;;;;4.55;3.10;;;;;;;19.10;72.93;97796.72;5030052;28;20144;-61
2021/08/02 07:21:18;;;;;;;4.70;3.25;;;;;;;18.69;74.67;97810.38;5026817;28;20052;-62
2021/08/02 07:23:44;;;;;;;6.00;3.50;;;;;;;18.50;74.88;97815.38;5027434;28;20017;-60
2021/08/02 07:26:09;;;;;;;4.38;3.00;;;;;;;19.27;73.33;97804.16;5028475;28;20075;-63
2021/08/02 07:28:35;;;;;;;4.68;2.90;;;;;;;18.55;76.10;97817.69;5028305;28;20049;-60
2021/08/02 07:31:00;;;;;;;5.93;3.42;;;;;;;18.88;74.75;97819.56;5030281;28;20051;-62
2021/08/02 07:33:25;;;;;;;5.82;2.95;;;;;;;18.88;75.84;97819.56;5030268;28;20440;-61
2021/08/02 07:35:51;;;;;;;5.38;2.95;;;;;;;19.21;73.67;97813.41;5029265;28;20115;-61
2021/08/02 07:38:16;;;;;;;4.43;2.97;;;;;;;19.02;73.73;97811.41;5031477;28;20025;-63
2021/08/02 07:40:42;;;;;;;5.03;2.70;;;;;;;19.45;71.76;97818.56;5028677;28;20064;-61
2021/08/02 07:43:07;;;;;;;7.85;3.10;;;;;;;19.49;71.15;97818.31;5028556;28;20397;-61
2021/08/02 07:45:32;;;;;;;5.32;2.78;;;;;;;20.25;69.23;97810.38;5030118;28;21173;-61
2021/08/02 07:47:57;;;;;;;7.63;3.05;;;;;;;19.95;70.19;97814.59;5028897;28;20039;-61
2021/08/02 07:50:23;;;;;;;6.18;2.83;;;;;;;19.73;70.29;97815.50;5029085;28;20103;-61
2021/08/02 07:52:48;;;;;;;5.85;3.20;;;;;;;19.50;72.46;97819.97;5028226;28;20107;-63
2021/08/02 07:55:14;;;;;;;6.25;2.83;;;;;;;19.59;70.70;97813.94;5029174;28;20037;-61
2021/08/02 07:57:41;;;;;;;7.35;3.30;;;;;;;19.56;69.21;97809.75;5029547;28;20021;-64
2021/08/02 08:00:08;;;;;;;4.80;3.22;;;;;;;20.16;68.77;97812.84;5027908;28;20028;-63
2021/08/02 08:02:34;;;;;;;4.15;2.92;;;;;;;19.98;69.99;97822.28;5028793;28;20024;-62
2021/08/02 08:04:59;;;;;;;4.25;3.05;;;;;;;19.96;69.08;97816.25;5029776;28;20280;-66
2021/08/02 08:07:24;;;;;;;3.95;2.80;;;;;;;19.62;69.32;97811.06;5031017;28;20175;-64
2021/08/02 08:09:52;;;;;;;6.47;3.17;;;;;;;19.86;69.56;97821.47;5028861;28;20078;-63
2021/08/02 08:12:18;;;;;;;4.90;2.72;;;;;;;20.20;68.82;97824.84;5028843;28;20123;-64
2021/08/02 08:14:43;;;;;;;5.40;3.05;;;;;;;20.84;66.36;97822.19;5029768;28;20108;-64
2021/08/02 08:17:08;;;;;;;4.63;3.05;;;;;;;20.93;65.66;97822.22;5028863;28;20198;-65
2021/08/02 08:19:34;;;;;;;5.38;3.47;;;;;;;20.40;66.92;97819.66;5031326;28;20125;-63
2021/08/02 08:21:59;;;;;;;4.15;2.75;;;;;;;20.63;65.40;97824.88;5028515;28;20037;-66
2021/08/02 08:24:25;;;;;;;4.97;2.83;;;;;;;21.16;64.36;97832.69;5029626;28;20368;-65
2021/08/02 08:26:51;;;;;;;4.63;2.92;;;;;;;21.47;63.99;97830.03;5029514;28;20099;-62
2021/08/02 08:29:17;;;;;;;5.00;2.90;;;;;;;21.62;64.05;97826.00;5034153;28;20844;-63
2021/08/02 08:31:42;;;;;;;8.23;2.70;;;;;;;22.23;61.03;97829.41;5032319;28;20068;-63
2021/08/02 08:34:07;;;;;;;5.72;2.60;;;;;;;21.93;61.91;97825.91;5034105;28;20120;-65
2021/08/02 08:36:33;;;;;;;5.03;2.83;;;;;;;22.10;62.68;97830.50;5033075;28;20098;-63
2021/08/02 08:38:59;;;;;;;6.78;2.90;;;;;;;21.72;61.71;97829.50;5033277;28;20455;-62
2021/08/02 08:41:27;;;;;;;4.28;2.60;;;;;;;21.52;61.98;97833.94;5032127;28;20049;-63
2021/08/02 08:43:53;;;;;;;6.00;2.80;;;;;;;21.47;63.53;97830.03;5032537;28;20033;-62
2021/08/02 08:46:20;;;;;;;6.20;2.90;;;;;;;21.37;63.03;97830.78;5031692;28;20041;-64
2021/08/02 08:48:46;;;;;;;3.83;2.63;;;;;;;21.33;63.51;97832.03;5031385;28;20034;-62
2021/08/02 08:51:13;;;;;;;3.90;2.60;;;;;;;21.75;61.94;97833.69;5031103;28;20041;-63
2021/08/02 08:53:41;;;;;;;7.47;2.80;;;;;;;21.60;61.04;97825.28;5032059;28;20026;-62
2021/08/02 08:56:07;;;;;;;5.18;2.65;;;;;;;21.23;62.02;97828.50;5031302;28;20120;-63
2021/08/02 08:58:32;;;;;;;6.68;2.97;;;;;;;21.23;62.72;97831.16;5030504;28;20166;-63
2021/08/02 09:01:03;;;;;;;4.13;2.90;;;;;;;21.18;62.27;97842.16;5033655;28;20400;-61
2021/08/02 09:03:29;;;;;;;5.10;3.00;;;;;;;21.08;62.72;97840.44;5031778;28;20104;-61
2021/08/02 09:06:07;;;;;;;4.40;2.60;;;;;;;21.27;61.90;97834.41;5030794;28;20120;-64
2021/08/02 09:08:43;;;;;;;5.32;2.70;;;;;;;21.68;60.87;97833.41;5033094;28;20028;-61
2021/08/02 09:11:16;;;;;;;6.15;2.70;;;;;;;21.75;61.67;97839.84;5031752;28;20038;-62
2021/08/02 09:13:41;;;;;;;6.15;2.50;;;;;;;21.49;61.51;97839.50;5030654;28;20033;-62
2021/08/02 09:16:27;;;;;;;3.92;2.53;;;;;;;21.34;62.99;97841.66;5031475;28;20136;-62
2021/08/02 09:19:03;;;;;;;4.78;2.67;;;;;;;20.98;62.53;97838.59;5032292;28;20021;-63
2021/08/02 09:21:43;;;;;;;5.70;2.38;;;;;;;20.86;63.35;97841.44;5030447;28;20040;-63
2021/08/02 09:24:11;;;;;;;4.05;2.50;;;;;;;20.77;64.05;97843.09;5030708;28;20090;-64
2021/08/02 09:26:40;;;;;;;4.72;2.88;;;;;;;20.77;64.10;97835.97;5031851;28;20072;-62
2021/08/02 09:29:09;;;;;;;3.38;2.40;;;;;;;21.16;63.34;97848.59;5031670;28;20607;-62
2021/08/02 09:31:39;;;;;;;5.00;2.90;;;;;;;20.86;63.10;97841.44;5032813;28;20049;-63
2021/08/02 09:34:09;;;;;;;4.55;2.70;;;;;;;20.54;63.25;97843.19;5031488;28;20118;-65
2021/08/02 09:36:42;;;;;;;4.45;2.85;;;;;;;20.88;63.10;97839.50;5048061;28;20075;-62
2021/08/02 09:39:09;;;;;;;5.22;2.90;;;;;;;20.83;62.18;97839.91;5030661;28;20478;-63
2021/08/02 09:41:34;;;;;;;7.78;2.80;;;;;;;21.27;62.45;97840.53;5031823;28;20041;-63
2021/08/02 09:44:00;;;;;;;5.90;2.70;;;;;;;20.88;63.62;97840.38;5033019;28;20055;-63
2021/08/02 09:46:25;;;;;;;4.60;2.70;;;;;;;21.04;62.96;97841.69;5033756;28;20415;-65
2021/08/02 09:48:51;;;;;;;5.38;2.80;;;;;;;21.22;61.29;97839.25;5031277;28;20059;-62
2021/08/02 09:51:17;;;;;;;5.15;2.80;;;;;;;21.37;61.68;97846.69;5031085;28;20041;-65
2021/08/02 09:53:50;;;;;;;6.00;2.60;;;;;;;21.48;61.79;97840.47;5031585;28;20036;-63
2021/08/02 09:56:19;;;;;;;7.10;2.50;;;;;;;21.05;60.78;97843.38;5030474;28;20045;-64
2021/08/02 09:58:46;;;;;;;3.50;2.38;;;;;;;21.47;59.68;97835.31;5029839;28;20022;-65
2021/08/02 10:01:13;;;;;;;4.82;2.33;;;;;;;21.87;58.94;97826.44;5030103;28;20067;-65
2021/08/02 10:03:39;;;;;;;3.40;2.42;;;;;;;23.00;57.38;97831.09;5031411;28;20491;-66
2021/08/02 10:06:05;;;;;;;3.83;2.47;;;;;;;23.16;53.87;97822.53;5029613;28;20129;-63
2021/08/02 10:08:32;;;;;;;3.55;2.08;;;;;;;24.40;52.42;97819.31;5031208;28;20037;-65
2021/08/02 10:10:58;;;;;;;4.43;2.28;;;;;;;24.36;53.20;97834.78;5030574;28;20029;-62
2021/08/02 10:13:26;;;;;;;3.92;2.30;;;;;;;24.55;53.56;97824.94;5028636;28;20041;-63
2021/08/02 10:15:57;;;;;;;4.53;2.15;;;;;;;24.98;49.59;97824.06;5031866;28;20033;-63
2021/08/02 10:18:25;;;;;;;3.40;1.90;;;;;;;25.46;49.46;97821.81;5029618;28;20403;-63
2021/08/02 10:21:08;;;;;;;3.70;2.00;;;;;;;26.39;47.54;97828.00;5030845;28;20045;-63
2021/08/02 10:23:34;;;;;;;4.80;2.17;;;;;;;27.04;45.39;97821.75;5032920;28;20021;-64
2021/08/02 10:26:00;;;;;;;3.15;2.00;;;;;;;25.04;48.81;97822.59;5029940;28;20048;-64
2021/08/02 10:28:25;;;;;;;3.22;1.77;;;;;;;24.84;50.45;97818.47;5029940;28;20044;-64
2021/08/02 10:31:02;;;;;;;4.03;2.10;;;;;;;25.33;49.09;97818.75;5032602;28;20942;-64
2021/08/02 10:33:33;;;;;;;3.92;2.10;;;;;;;26.05;47.10;97813.78;5028428;28;20970;-63
2021/08/02 10:36:10;;;;;;;3.85;2.17;;;;;;;27.16;45.01;97808.81;5029151;28;20663;-64
2021/08/02 10:38:43;;;;;;;3.47;1.95;;;;;;;26.37;48.14;97822.78;5030962;28;20025;-66
2021/08/02 10:41:09;;;;;;;3.92;2.00;;;;;;;25.15;50.83;97814.31;5029606;28;20041;-63
2021/08/02 10:43:38;;;;;;;3.90;2.00;;;;;;;26.32;47.69;97812.63;5029031;28;20029;-61
2021/08/02 10:46:21;;;;;;;4.35;1.88;;;;;;;26.52;46.51;97812.25;5031190;28;20037;-61
2021/08/02 10:48:48;;;;;;;4.10;1.90;;;;;;;26.08;45.12;97810.78;5028390;28;20090;-63
2021/08/02 10:51:18;;;;;;;3.85;2.00;;;;;;;25.78;46.02;97804.19;5027777;28;20037;-61
2021/08/02 10:54:01;;;;;;;4.75;2.00;;;;;;;26.18;46.58;97799.09;5027993;28;20521;-63
2021/08/02 10:56:29;;;;;;;3.60;2.00;;;;;;;26.85;44.14;97791.69;5027355;28;20079;-61
2021/08/02 10:58:59;;;;;;;4.72;2.03;;;;;;;26.45;45.58;97796.06;5031016;28;20102;-60
2021/08/02 11:01:28;;;;;;;3.78;1.70;;;;;;;25.35;47.25;97790.88;5030062;28;20063;-62
2021/08/02 11:03:55;;;;;;;4.55;2.10;;;;;;;26.39;45.80;97795.91;5028400;28;20021;-62
2021/08/02 11:06:21;;;;;;;4.68;2.10;;;;;;;24.94;48.12;97787.16;5029456;28;20053;-63
2021/08/02 11:08:49;;;;;;;5.82;1.98;;;;;;;25.23;48.72;97784.13;5029280;28;20029;-64
2021/08/02 11:11:23;;;;;;;6.20;2.00;;;;;;;25.37;49.63;97772.88;5027713;28;20033;-61
2021/08/02 11:13:50;;;;;;;3.95;2.17;;;;;;;24.74;49.68;97768.75;5029110;28;20079;-61
2021/08/02 11:16:17;;;;;;;7.38;2.33;;;;;;;25.39;46.04;97767.38;5030294;28;20060;-64
2021/08/02 11:18:46;;;;;;;4.00;2.00;;;;;;;25.87;45.79;97768.47;5028126;28;20487;-62
2021/08/02 11:21:23;;;;;;;4.32;1.80;;;;;;;25.84;46.09;97759.94;5027127;28;20148;-61
2021/08/02 11:23:49;;;;;;;3.75;1.70;;;;;;;26.83;45.47;97761.56;5028677;28;20033;-62
2021/08/02 11:26:14;;;;;;;4.63;1.80;;;;;;;26.29;45.79;97756.81;5029482;28;20583;-62
2021/08/02 11:28:42;;;;;;;4.47;2.10;;;;;;;26.67;44.92;97757.13;5027665;28;20148;-62
2021/08/02 11:31:11;;;;;;;3.00;1.70;;;;;;;26.37;44.84;97760.47;5030039;28;20032;-62
2021/08/02 11:33:38;;;;;;;3.10;1.80;;;;;;;26.98;44.36;97748.31;5028789;28;20044;-63
2021/08/02 11:36:05;;;;;;;3.92;1.90;;;;;;;26.34;45.05;97751.78;5028904;28;20813;-62